ěÝzenÝ letovÚho provozu ╚eskÚ republiky
Letiste: LKMT Aktualizace: 29.07.2021 13:25:28  UTC
 METAR LKMT 29.07. 13:00 ...
METAR LKMT 291300Z 23009KT CAVOK 26/16 Q1014 NOSIG RMK REG QNH 1011=
 TAF LKMT 29.07. 11:00 ...
TAF LKMT 291100Z 2912/3018 22008KT CAVOK      TEMPO 2912/2917 23012G22KT 9999 SCT040      BECMG 2917/2919 21004KT      TEMPO 3009/3017 19012G22KT 9999 SCT036=